createdAt,value
2023-01-19T00:01:01.318Z,7.93
2023-01-19T00:03:28.683Z,7.10
2023-01-19T00:05:56.088Z,7.13
2023-01-19T00:08:23.596Z,7.82
2023-01-19T00:10:51.472Z,6.40
2023-01-19T00:13:19.501Z,7.53
2023-01-19T00:15:46.877Z,7.82
2023-01-19T00:18:14.280Z,7.32
2023-01-19T00:20:42.210Z,7.07
2023-01-19T00:23:09.783Z,6.22
2023-01-19T00:25:42.809Z,6.53
2023-01-19T00:28:11.248Z,6.38
2023-01-19T00:30:39.014Z,6.70
2023-01-19T00:33:06.567Z,5.47
2023-01-19T00:35:34.748Z,6.60
2023-01-19T00:38:02.274Z,6.75
2023-01-19T00:40:29.875Z,6.40
2023-01-19T00:42:57.293Z,6.13
2023-01-19T00:45:25.128Z,6.38
2023-01-19T00:47:57.054Z,5.85
2023-01-19T00:50:25.054Z,6.10
2023-01-19T00:52:53.477Z,5.47
2023-01-19T00:55:21.109Z,6.15
2023-01-19T00:57:49.110Z,6.13
2023-01-19T01:00:19.569Z,6.88
2023-01-19T01:02:47.301Z,5.55
2023-01-19T01:05:14.930Z,5.50
2023-01-19T01:07:44.739Z,6.57
2023-01-19T01:10:13.497Z,6.18
2023-01-19T01:12:56.421Z,7.65
2023-01-19T01:15:26.793Z,5.78
2023-01-19T01:17:57.053Z,6.53
2023-01-19T01:20:42.982Z,6.80
2023-01-19T01:23:13.712Z,7.47
2023-01-19T01:25:44.695Z,6.40
2023-01-19T01:28:12.031Z,6.88
2023-01-19T01:30:57.507Z,6.95
2023-01-19T01:33:40.953Z,6.22
2023-01-19T01:36:11.650Z,6.23
2023-01-19T01:38:48.368Z,6.13
2023-01-19T01:41:15.846Z,6.78
2023-01-19T01:43:50.510Z,6.22
2023-01-19T01:46:21.206Z,5.43
2023-01-19T01:48:58.397Z,5.85
2023-01-19T01:51:29.957Z,5.97
2023-01-19T01:54:03.478Z,5.70
2023-01-19T01:56:36.133Z,7.05
2023-01-19T01:59:06.442Z,6.43
2023-01-19T02:01:52.508Z,5.35
2023-01-19T02:04:20.025Z,5.82
2023-01-19T02:07:06.893Z,6.47
2023-01-19T02:09:54.459Z,5.75
2023-01-19T02:12:41.049Z,6.13
2023-01-19T02:15:16.173Z,6.20
2023-01-19T02:20:11.156Z,5.70
2023-01-19T02:22:45.426Z,7.13
2023-01-19T02:25:12.933Z,5.97
2023-01-19T02:27:40.526Z,6.03
2023-01-19T02:30:08.690Z,5.38
2023-01-19T02:32:36.305Z,5.82
2023-01-19T02:35:07.147Z,6.82
2023-01-19T02:37:37.690Z,6.70
2023-01-19T02:40:06.541Z,5.25
2023-01-19T02:42:44.034Z,5.60
2023-01-19T02:45:14.671Z,5.90
2023-01-19T02:47:46.321Z,6.28
2023-01-19T02:50:53.161Z,6.15
2023-01-19T02:53:23.316Z,5.97
2023-01-19T02:55:55.311Z,5.97
2023-01-19T02:58:35.086Z,7.28
2023-01-19T03:01:24.993Z,5.40
2023-01-19T03:03:57.992Z,7.22
2023-01-19T03:06:46.008Z,5.82
2023-01-19T03:09:18.874Z,6.18
2023-01-19T03:11:51.241Z,6.72
2023-01-19T03:14:22.722Z,6.25
2023-01-19T03:16:55.898Z,5.95
2023-01-19T03:19:24.612Z,5.53
2023-01-19T03:21:53.952Z,5.85
2023-01-19T03:24:21.881Z,6.13
2023-01-19T03:26:52.387Z,5.75
2023-01-19T03:29:21.937Z,5.80
2023-01-19T03:31:50.188Z,5.45
2023-01-19T03:34:18.571Z,5.20
2023-01-19T03:36:51.504Z,6.18
2023-01-19T03:39:22.612Z,5.53
2023-01-19T03:41:52.682Z,6.72
2023-01-19T03:44:20.059Z,5.75
2023-01-19T03:46:48.910Z,6.00
2023-01-19T03:49:16.409Z,5.72
2023-01-19T03:51:43.859Z,5.90
2023-01-19T03:54:11.708Z,5.07
2023-01-19T03:56:39.038Z,5.38
2023-01-19T03:59:07.122Z,5.63
2023-01-19T04:01:34.741Z,6.25
2023-01-19T04:04:02.177Z,4.88
2023-01-19T04:06:29.577Z,5.68
2023-01-19T04:08:56.905Z,4.70
2023-01-19T04:11:24.279Z,5.43
2023-01-19T04:13:51.884Z,5.60
2023-01-19T04:16:21.296Z,5.10
2023-01-19T04:18:48.962Z,6.40
2023-01-19T04:21:17.172Z,6.45
2023-01-19T04:23:46.286Z,6.63
2023-01-19T04:26:14.187Z,5.28
2023-01-19T04:28:41.667Z,6.18
2023-01-19T04:31:09.344Z,5.85
2023-01-19T04:33:36.699Z,7.18
2023-01-19T04:36:04.470Z,6.43
2023-01-19T04:38:31.903Z,5.97
2023-01-19T04:40:59.438Z,5.93
2023-01-19T04:43:26.776Z,6.18
2023-01-19T04:45:54.064Z,6.57
2023-01-19T04:48:21.500Z,7.25
2023-01-19T04:50:48.826Z,7.10
2023-01-19T04:53:16.690Z,6.88
2023-01-19T04:55:44.074Z,6.63
2023-01-19T04:58:11.364Z,6.30
2023-01-19T05:00:38.733Z,6.72
2023-01-19T05:03:06.446Z,6.40
2023-01-19T05:05:34.348Z,6.18
2023-01-19T05:08:01.713Z,7.13
2023-01-19T05:10:29.129Z,6.65
2023-01-19T05:12:56.532Z,7.07
2023-01-19T05:15:24.265Z,6.22
2023-01-19T05:17:51.660Z,6.95
2023-01-19T05:20:19.001Z,7.82
2023-01-19T05:22:50.764Z,7.00
2023-01-19T05:25:18.449Z,7.45
2023-01-19T05:27:45.945Z,6.00
2023-01-19T05:30:14.135Z,7.15
2023-01-19T05:32:41.747Z,7.07
2023-01-19T05:35:09.430Z,6.97
2023-01-19T05:37:36.765Z,7.50
2023-01-19T05:40:04.260Z,7.55
2023-01-19T05:42:32.978Z,8.00
2023-01-19T05:45:00.412Z,6.75
2023-01-19T05:47:30.057Z,6.70
2023-01-19T05:49:57.561Z,7.00
2023-01-19T05:52:27.708Z,7.97
2023-01-19T05:54:55.354Z,6.95
2023-01-19T05:57:26.178Z,7.97
2023-01-19T05:59:53.469Z,6.95
2023-01-19T06:02:20.984Z,8.80
2023-01-19T06:04:48.291Z,6.75
2023-01-19T06:07:15.657Z,6.88
2023-01-19T06:09:42.963Z,6.60
2023-01-19T06:12:10.368Z,7.93
2023-01-19T06:14:38.287Z,8.85
2023-01-19T06:17:06.826Z,8.73
2023-01-19T06:19:35.085Z,7.35
2023-01-19T06:22:03.002Z,8.38
2023-01-19T06:24:30.427Z,7.05
2023-01-19T06:26:57.832Z,7.63
2023-01-19T06:29:26.389Z,8.75
2023-01-19T06:31:54.532Z,7.88
2023-01-19T06:34:22.098Z,7.72
2023-01-19T06:36:50.883Z,7.68
2023-01-19T06:39:18.297Z,8.10
2023-01-19T06:41:45.603Z,8.35
2023-01-19T06:44:12.946Z,8.13
2023-01-19T06:46:40.321Z,9.38
2023-01-19T06:49:08.164Z,9.02
2023-01-19T06:51:35.587Z,9.05
2023-01-19T06:54:03.180Z,9.65
2023-01-19T06:56:30.641Z,9.65
2023-01-19T06:58:58.271Z,11.32
2023-01-19T07:01:27.029Z,10.52
2023-01-19T07:03:54.711Z,10.73
2023-01-19T07:06:22.141Z,10.30
2023-01-19T07:08:49.566Z,10.20
2023-01-19T07:11:26.650Z,10.38
2023-01-19T07:14:00.629Z,9.63
2023-01-19T07:16:28.195Z,10.57
2023-01-19T07:18:55.662Z,14.70
2023-01-19T07:21:23.272Z,12.25
2023-01-19T07:23:52.421Z,14.10
2023-01-19T07:26:21.658Z,12.32
2023-01-19T07:28:49.505Z,13.45
2023-01-19T07:31:17.041Z,12.00
2023-01-19T07:33:44.651Z,14.25
2023-01-19T07:36:12.048Z,14.23
2023-01-19T07:38:39.454Z,13.20
2023-01-19T07:41:07.960Z,12.27
2023-01-19T07:43:35.405Z,13.43
2023-01-19T07:46:03.633Z,12.07
2023-01-19T07:48:31.045Z,13.10
2023-01-19T07:51:05.417Z,16.40
2023-01-19T07:53:33.048Z,20.70
2023-01-19T07:56:00.479Z,24.70
2023-01-19T07:58:27.823Z,25.52
2023-01-19T08:00:55.269Z,21.25
2023-01-19T08:03:22.680Z,18.08
2023-01-19T08:05:53.913Z,18.65
2023-01-19T08:08:21.668Z,23.58
2023-01-19T08:10:51.896Z,19.98
2023-01-19T08:13:21.757Z,17.20
2023-01-19T08:15:53.001Z,15.18
2023-01-19T08:18:21.230Z,17.50
2023-01-19T08:20:48.700Z,20.70
2023-01-19T08:23:18.274Z,21.15
2023-01-19T08:25:46.073Z,19.25
2023-01-19T08:28:15.439Z,17.17
2023-01-19T08:30:46.200Z,15.85
2023-01-19T08:33:13.933Z,14.75
2023-01-19T08:35:42.235Z,14.25
2023-01-19T08:38:10.328Z,11.85
2023-01-19T08:40:39.019Z,11.90
2023-01-19T08:43:07.984Z,13.65
2023-01-19T08:45:36.120Z,13.85
2023-01-19T08:48:03.654Z,13.45
2023-01-19T08:50:32.375Z,13.57
2023-01-19T08:53:03.220Z,12.27
2023-01-19T08:55:31.129Z,11.48
2023-01-19T08:58:00.384Z,12.32
2023-01-19T09:00:28.051Z,10.60
2023-01-19T09:02:56.723Z,10.25
2023-01-19T09:05:24.502Z,10.30
2023-01-19T09:07:51.853Z,11.07
2023-01-19T09:10:19.528Z,11.52
2023-01-19T09:12:46.962Z,10.18
2023-01-19T09:15:14.323Z,10.35
2023-01-19T09:17:42.588Z,11.43
2023-01-19T09:20:10.249Z,9.90
2023-01-19T09:22:38.757Z,10.82
2023-01-19T09:25:06.893Z,9.52
2023-01-19T09:27:35.048Z,8.68
2023-01-19T09:30:02.559Z,9.35
2023-01-19T09:32:29.975Z,10.43
2023-01-19T09:34:57.686Z,8.15
2023-01-19T09:37:25.054Z,7.90
2023-01-19T09:39:58.772Z,6.93
2023-01-19T09:42:35.025Z,7.72
2023-01-19T09:45:03.649Z,7.60
2023-01-19T09:47:31.557Z,7.80
2023-01-19T09:50:13.671Z,7.43
2023-01-19T09:52:42.430Z,8.40
2023-01-19T09:55:20.765Z,7.63
2023-01-19T09:57:48.118Z,8.15
2023-01-19T10:00:19.122Z,7.38
2023-01-19T10:03:01.551Z,10.57
2023-01-19T10:05:44.951Z,8.30
2023-01-19T10:08:23.150Z,8.80
2023-01-19T10:10:54.565Z,8.18
2023-01-19T10:13:40.393Z,8.70
2023-01-19T10:16:14.554Z,7.88
2023-01-19T10:18:46.050Z,7.63
2023-01-19T10:21:16.592Z,7.85
2023-01-19T10:23:46.447Z,7.32
2023-01-19T10:26:25.468Z,7.25
2023-01-19T10:28:57.515Z,7.70
2023-01-19T10:31:25.260Z,9.65
2023-01-19T10:33:52.947Z,8.27
2023-01-19T10:36:20.320Z,8.25
2023-01-19T10:38:48.412Z,7.72
2023-01-19T10:41:19.196Z,8.07
2023-01-19T10:43:47.327Z,7.38
2023-01-19T10:46:26.931Z,7.78
2023-01-19T10:48:55.086Z,8.30
2023-01-19T10:51:22.609Z,7.95
2023-01-19T10:53:56.028Z,9.35
2023-01-19T10:56:23.461Z,9.05
2023-01-19T10:58:50.941Z,8.60
2023-01-19T11:01:23.830Z,8.93
2023-01-19T11:03:51.846Z,8.18
2023-01-19T11:06:20.564Z,8.80
2023-01-19T11:08:50.457Z,8.27
2023-01-19T11:11:18.212Z,7.20
2023-01-19T11:13:46.039Z,7.00
2023-01-19T11:16:19.386Z,8.27
2023-01-19T11:18:47.519Z,7.38
2023-01-19T11:21:16.042Z,8.80
2023-01-19T11:23:51.206Z,7.25
2023-01-19T11:26:34.717Z,8.45
2023-01-19T11:29:03.009Z,9.98
2023-01-19T11:31:31.532Z,9.30
2023-01-19T11:34:00.411Z,7.80
2023-01-19T11:36:29.759Z,7.40
2023-01-19T11:38:58.240Z,7.55
2023-01-19T11:41:30.502Z,7.78
2023-01-19T11:43:59.188Z,6.65
2023-01-19T11:46:30.323Z,7.45
2023-01-19T11:49:03.840Z,8.45
2023-01-19T11:51:51.120Z,7.80
2023-01-19T11:54:29.901Z,7.22
2023-01-19T11:56:59.913Z,7.88
2023-01-19T11:59:27.436Z,7.07
2023-01-19T12:01:59.989Z,6.78
2023-01-19T12:04:38.983Z,7.72
2023-01-19T12:07:10.666Z,6.80
2023-01-19T12:09:42.933Z,7.07
2023-01-19T12:12:31.808Z,7.22
2023-01-19T12:14:59.170Z,5.97
2023-01-19T12:17:49.817Z,7.65
2023-01-19T12:20:35.952Z,7.03
2023-01-19T12:23:03.238Z,7.05
2023-01-19T12:25:36.665Z,7.20
2023-01-19T12:28:04.416Z,7.57
2023-01-19T12:30:32.694Z,6.75
2023-01-19T12:33:36.009Z,6.38
2023-01-19T12:36:05.618Z,7.28
2023-01-19T12:38:42.150Z,6.15
2023-01-19T12:41:21.570Z,7.38
2023-01-19T12:43:49.382Z,6.20
2023-01-19T12:46:21.197Z,6.32
2023-01-19T12:48:48.599Z,7.22
2023-01-19T12:51:26.012Z,7.18
2023-01-19T12:53:55.660Z,7.18
2023-01-19T12:56:33.818Z,6.78
2023-01-19T12:59:01.402Z,6.55
2023-01-19T13:01:28.956Z,6.15
2023-01-19T13:04:09.409Z,8.77
2023-01-19T13:06:48.889Z,8.98
2023-01-19T13:09:30.261Z,9.27
2023-01-19T13:12:27.667Z,8.98
2023-01-19T13:15:15.001Z,8.90
2023-01-19T13:17:52.283Z,7.95
2023-01-19T13:20:24.698Z,5.80
2023-01-19T13:22:53.548Z,6.45
2023-01-19T13:25:35.862Z,6.20
2023-01-19T13:28:08.352Z,5.90
2023-01-19T13:30:36.366Z,7.22
2023-01-19T13:33:23.929Z,5.97
2023-01-19T13:35:56.585Z,6.10
2023-01-19T13:38:24.565Z,7.97
2023-01-19T13:40:52.616Z,6.40
2023-01-19T13:43:31.113Z,7.05
2023-01-19T13:45:58.776Z,9.50
2023-01-19T13:48:26.247Z,9.02
2023-01-19T13:50:57.583Z,10.38
2023-01-19T13:53:25.005Z,8.15
2023-01-19T13:56:30.996Z,7.22
2023-01-19T13:59:12.677Z,7.20
2023-01-19T14:01:42.191Z,6.50
2023-01-19T14:04:30.135Z,6.28
2023-01-19T14:06:58.934Z,6.88
2023-01-19T14:09:26.295Z,7.78
2023-01-19T14:12:14.091Z,7.22
2023-01-19T14:14:42.478Z,8.32
2023-01-19T14:17:21.049Z,12.85
2023-01-19T14:19:52.776Z,10.82
2023-01-19T14:22:20.270Z,8.50
2023-01-19T14:24:47.616Z,7.93
2023-01-19T14:27:19.768Z,8.15
2023-01-19T14:30:01.678Z,5.45
2023-01-19T14:32:32.970Z,5.50
2023-01-19T14:35:10.376Z,5.20
2023-01-19T14:37:38.854Z,5.22
2023-01-19T14:40:21.779Z,4.85
2023-01-19T14:42:50.058Z,5.20
2023-01-19T14:45:33.957Z,4.90
2023-01-19T14:48:16.324Z,5.10
2023-01-19T14:51:02.081Z,4.13
2023-01-19T14:53:36.625Z,4.18
2023-01-19T14:56:06.381Z,5.57
2023-01-19T14:58:34.975Z,4.45
2023-01-19T15:01:15.553Z,4.50
2023-01-19T15:03:48.258Z,4.70
2023-01-19T15:06:17.697Z,3.65
2023-01-19T15:08:52.109Z,4.15
2023-01-19T15:11:33.540Z,4.10
2023-01-19T15:14:03.154Z,4.50
2023-01-19T15:16:44.735Z,4.82
2023-01-19T15:19:14.787Z,5.18
2023-01-19T15:22:00.052Z,4.90
2023-01-19T15:24:28.622Z,5.70
2023-01-19T15:26:58.501Z,4.93
2023-01-19T15:29:26.746Z,5.13
2023-01-19T15:31:54.220Z,5.55
2023-01-19T15:34:26.387Z,6.20
2023-01-19T15:36:53.741Z,5.70
2023-01-19T15:39:36.889Z,6.35
2023-01-19T15:42:04.481Z,7.30
2023-01-19T15:44:31.859Z,7.50
2023-01-19T15:46:59.270Z,7.20
2023-01-19T15:49:27.601Z,8.48
2023-01-19T15:51:55.030Z,6.78
2023-01-19T15:54:22.346Z,7.18
2023-01-19T15:56:49.992Z,8.43
2023-01-19T15:59:17.378Z,9.38
2023-01-19T16:01:44.822Z,8.57
2023-01-19T16:04:12.329Z,8.13
2023-01-19T16:06:39.836Z,7.40
2023-01-19T16:09:07.815Z,7.65
2023-01-19T16:11:38.491Z,6.97
2023-01-19T16:14:05.821Z,6.95
2023-01-19T16:16:33.453Z,6.95
2023-01-19T16:19:00.854Z,6.90
2023-01-19T16:21:28.567Z,7.95
2023-01-19T16:23:56.419Z,8.68
2023-01-19T16:26:23.786Z,7.13
2023-01-19T16:28:51.199Z,9.35
2023-01-19T16:31:18.678Z,9.30
2023-01-19T16:33:46.236Z,9.52
2023-01-19T16:36:24.343Z,9.55
2023-01-19T16:38:52.155Z,9.98
2023-01-19T16:41:19.843Z,9.10
2023-01-19T16:43:57.596Z,10.00
2023-01-19T16:46:26.181Z,10.63
2023-01-19T16:48:53.800Z,11.73
2023-01-19T16:51:21.190Z,13.38
2023-01-19T16:53:50.741Z,11.80
2023-01-19T16:56:18.386Z,10.57
2023-01-19T16:58:46.084Z,11.07
2023-01-19T17:01:15.037Z,11.20
2023-01-19T17:03:45.989Z,10.52
2023-01-19T17:06:14.457Z,9.80
2023-01-19T17:08:42.324Z,10.38
2023-01-19T17:11:13.671Z,10.90
2023-01-19T17:13:41.068Z,10.57
2023-01-19T17:16:08.609Z,9.80
2023-01-19T17:18:37.059Z,11.93
2023-01-19T17:21:05.606Z,11.10
2023-01-19T17:23:33.713Z,10.57
2023-01-19T17:26:01.308Z,12.20
2023-01-19T17:28:28.633Z,11.48
2023-01-19T17:30:56.105Z,12.27
2023-01-19T17:33:24.583Z,12.20
2023-01-19T17:35:52.090Z,12.80
2023-01-19T17:38:19.510Z,14.07
2023-01-19T17:40:47.011Z,12.38
2023-01-19T17:43:14.355Z,13.30
2023-01-19T17:45:41.787Z,14.00
2023-01-19T17:48:09.409Z,12.63
2023-01-19T17:50:37.002Z,12.52
2023-01-19T17:53:04.495Z,14.18
2023-01-19T17:55:34.697Z,13.32
2023-01-19T17:58:02.650Z,13.52
2023-01-19T18:00:30.391Z,13.40
2023-01-19T18:02:58.513Z,13.13
2023-01-19T18:05:26.043Z,14.48
2023-01-19T18:07:53.381Z,15.60
2023-01-19T18:10:20.738Z,13.48
2023-01-19T18:12:48.178Z,16.73
2023-01-19T18:15:16.978Z,17.88
2023-01-19T18:17:44.539Z,17.92
2023-01-19T18:20:12.392Z,16.85
2023-01-19T18:22:39.972Z,14.93
2023-01-19T18:25:07.534Z,16.88
2023-01-19T18:27:34.956Z,17.30
2023-01-19T18:30:02.457Z,19.20
2023-01-19T18:32:29.829Z,14.63
2023-01-19T18:34:57.819Z,17.40
2023-01-19T18:37:25.207Z,16.10
2023-01-19T18:39:54.608Z,15.60
2023-01-19T18:42:21.975Z,17.17
2023-01-19T18:44:49.427Z,15.73
2023-01-19T18:47:16.753Z,15.73
2023-01-19T18:49:44.228Z,18.55
2023-01-19T18:52:11.630Z,22.17
2023-01-19T18:54:39.141Z,21.65
2023-01-19T18:57:06.472Z,20.70
2023-01-19T18:59:33.869Z,21.73
2023-01-19T19:02:07.101Z,23.15
2023-01-19T19:04:34.575Z,25.27
2023-01-19T19:07:01.912Z,20.75
2023-01-19T19:09:29.285Z,18.30
2023-01-19T19:11:56.663Z,15.00
2023-01-19T19:14:24.088Z,15.10
2023-01-19T19:16:51.468Z,14.82
2023-01-19T19:19:20.992Z,14.65
2023-01-19T19:21:49.384Z,15.45
2023-01-19T19:24:16.817Z,16.45
2023-01-19T19:26:44.129Z,18.15
2023-01-19T19:29:12.195Z,16.48
2023-01-19T19:31:39.851Z,17.60
2023-01-19T19:34:08.458Z,17.80
2023-01-19T19:36:35.985Z,16.58
2023-01-19T19:39:03.380Z,16.50
2023-01-19T19:41:33.586Z,16.85
2023-01-19T19:44:01.377Z,16.95
2023-01-19T19:46:28.877Z,17.92
2023-01-19T19:48:56.312Z,16.50
2023-01-19T19:51:28.462Z,15.93
2023-01-19T19:53:57.139Z,16.27
2023-01-19T19:56:24.992Z,16.45
2023-01-19T19:58:52.926Z,16.55
2023-01-19T20:01:21.820Z,17.73
2023-01-19T20:03:50.148Z,18.70
2023-01-19T20:06:20.877Z,17.17
2023-01-19T20:08:52.339Z,16.45
2023-01-19T20:11:21.027Z,15.65
2023-01-19T20:13:48.692Z,16.33
2023-01-19T20:16:18.077Z,13.55
2023-01-19T20:18:48.705Z,14.32
2023-01-19T20:21:27.067Z,14.63
2023-01-19T20:23:55.388Z,13.63
2023-01-19T20:26:25.231Z,16.00
2023-01-19T20:28:52.987Z,14.18
2023-01-19T20:31:21.742Z,14.93
2023-01-19T20:33:49.745Z,18.33
2023-01-19T20:36:17.636Z,19.60
2023-01-19T20:38:45.365Z,20.73
2023-01-19T20:41:13.317Z,20.02
2023-01-19T20:43:40.922Z,19.77
2023-01-19T20:46:08.772Z,19.08
2023-01-19T20:48:36.743Z,17.67
2023-01-19T20:51:13.920Z,16.77
2023-01-19T20:53:42.235Z,14.73
2023-01-19T20:56:12.216Z,18.02
2023-01-19T20:58:39.916Z,16.83
2023-01-19T21:01:11.762Z,15.98
2023-01-19T21:03:39.311Z,15.57
2023-01-19T21:06:06.962Z,15.95
2023-01-19T21:08:34.367Z,14.80
2023-01-19T21:11:01.852Z,13.82
2023-01-19T21:13:30.588Z,15.02
2023-01-19T21:15:58.167Z,14.77
2023-01-19T21:18:28.052Z,14.25
2023-01-19T21:20:58.729Z,14.18
2023-01-19T21:23:26.675Z,15.10
2023-01-19T21:25:55.561Z,15.13
2023-01-19T21:28:23.350Z,15.75
2023-01-19T21:30:51.511Z,15.75
2023-01-19T21:33:19.652Z,16.63
2023-01-19T21:35:57.209Z,13.52
2023-01-19T21:38:27.055Z,18.52
2023-01-19T21:40:55.031Z,9.15
2023-01-19T21:43:22.655Z,8.60
2023-01-19T21:45:50.135Z,9.63
2023-01-19T21:48:17.902Z,9.90
2023-01-19T21:50:45.411Z,10.85
2023-01-19T21:53:12.896Z,9.35
2023-01-19T21:55:44.682Z,9.18
2023-01-19T21:58:12.051Z,8.00
2023-01-19T22:00:39.403Z,8.38
2023-01-19T22:03:06.756Z,8.57
2023-01-19T22:05:37.552Z,8.05
2023-01-19T22:08:06.438Z,8.90
2023-01-19T22:10:36.315Z,7.32
2023-01-19T22:13:03.743Z,8.60
2023-01-19T22:15:31.576Z,7.20
2023-01-19T22:17:59.011Z,7.15
2023-01-19T22:20:26.440Z,7.60
2023-01-19T22:22:53.775Z,7.32
2023-01-19T22:25:24.843Z,7.10
2023-01-19T22:27:52.244Z,6.65
2023-01-19T22:30:22.786Z,7.10
2023-01-19T22:32:50.264Z,6.47
2023-01-19T22:35:17.637Z,6.45
2023-01-19T22:37:44.960Z,6.88
2023-01-19T22:40:12.569Z,6.72
2023-01-19T22:42:40.182Z,6.68
2023-01-19T22:45:07.845Z,5.72
2023-01-19T22:47:35.248Z,6.63
2023-01-19T22:50:02.604Z,6.70
2023-01-19T22:52:29.943Z,6.22
2023-01-19T22:54:58.447Z,6.57
2023-01-19T22:57:26.182Z,5.97
2023-01-19T22:59:53.507Z,6.32
2023-01-19T23:02:21.198Z,8.75
2023-01-19T23:04:48.732Z,5.40
2023-01-19T23:07:16.029Z,7.72
2023-01-19T23:09:43.411Z,6.47
2023-01-19T23:12:10.720Z,6.88
2023-01-19T23:14:38.164Z,7.05
2023-01-19T23:17:06.031Z,6.13
2023-01-19T23:19:33.549Z,6.53
2023-01-19T23:22:01.550Z,5.93
2023-01-19T23:24:28.914Z,6.22
2023-01-19T23:26:56.606Z,6.07
2023-01-19T23:29:25.555Z,5.75
2023-01-19T23:31:56.064Z,6.47
2023-01-19T23:34:24.849Z,5.65
2023-01-19T23:36:55.261Z,6.97
2023-01-19T23:39:23.700Z,6.75
2023-01-19T23:41:52.638Z,5.82
2023-01-19T23:44:21.633Z,5.95
2023-01-19T23:46:49.683Z,6.15
2023-01-19T23:49:18.248Z,5.80
2023-01-19T23:51:45.672Z,5.10
2023-01-19T23:54:13.049Z,5.88
2023-01-19T23:56:40.617Z,7.07
2023-01-19T23:59:08.943Z,5.47
